Currently 60°F in Riverside (Presidential Park), California, USA
60°F
60°F / 42°F
1 mph E
0.01"
Thursday, December 13, 2018 9:43 AM PST

Riverside (Presidential Park), California Weather Summary
Last 36 Hours

Temperature Winds Hourly Humidity Dewpoint
Time Report Norm Report Norm Max Gusts Precip. Rpt. Norm Rpt. Norm Pressure
1,2Thu 09:43 AM  60.5°F  59°F  1 mph E  3 mph  3 mph  0.00"  63%  55%  48°F  42°F  30.25"
Thu 09:00 AM  54.5°F  56°F  1 mph SE  2 mph  3 mph  0.00"  81%  60%  49°F  42°F  30.25"
Thu 08:00 AM  45.3°F  50°F  1 mph SW  1 mph  4 mph  0.00"  91%  68%  43°F  40°F  30.23"
3Thu 07:09 AM  42.2°F  49°F  calm  2 mph  4 mph  ----  91%  68%  40°F  38°F  30.23"
Thu 07:00 AM  42.6°F  49°F  3 mph E  2 mph  3 mph  0.00"  91%  68%  40°F  38°F  30.23"
Thu 06:00 AM  43.0°F  49°F  calm  2 mph  3 mph  0.00"  91%  68%  40°F  38°F  30.21"
Thu 05:00 AM  44.4°F  49°F  calm  2 mph  3 mph  0.00"  91%  67%  42°F  38°F  30.20"
Thu 04:00 AM  44.4°F  50°F  1 mph E  2 mph  3 mph  0.01"  91%  67%  42°F  39°F  30.19"
Thu 03:00 AM  45.8°F  50°F  1 mph E  2 mph  5 mph  0.00"  90%  66%  43°F  39°F  30.18"
Thu 02:00 AM  46.5°F  50°F  calm  2 mph  none  0.00"  90%  66%  43°F  39°F  30.17"
Thu 01:00 AM  48.6°F  51°F  calm  2 mph  3 mph  0.00"  89%  66%  45°F  40°F  30.18"
Thu 12:00 AM  49.5°F  52°F  2 mph E  2 mph  4 mph  0.00"  88%  65%  46°F  40°F  30.17"
Wed 11:00 PM  51.1°F  52°F  1 mph NW  1 mph  6 mph  0.00"  88%  65%  47°F  40°F  30.17"
Wed 10:00 PM  52.0°F  53°F  3 mph NE  2 mph  5 mph  0.00"  86%  64%  48°F  41°F  30.16"
Wed 09:00 PM  52.2°F  54°F  2 mph SE  2 mph  4 mph  0.00"  84%  62%  47°F  41°F  30.16"
Wed 08:00 PM  54.2°F  56°F  calm  2 mph  4 mph  0.00"  81%  59%  48°F  41°F  30.16"
Wed 07:00 PM  55.6°F  58°F  3 mph SE  2 mph  3 mph  0.00"  76%  56%  48°F  41°F  30.15"
Wed 06:00 PM  59.9°F  60°F  1 mph W  2 mph  6 mph  0.00"  70%  51%  50°F  42°F  30.11"
Wed 05:00 PM  63.5°F  63°F  4 mph SW  3 mph  6 mph  0.00"  64%  46%  51°F  41°F  30.08"
Wed 04:00 PM  66.0°F  66°F  1 mph W  4 mph  6 mph  0.00"  54%  41%  48°F  41°F  30.07"
Wed 03:00 PM  66.2°F  67°F  4 mph SW  5 mph  7 mph  0.00"  52%  39%  47°F  40°F  30.06"
Wed 02:00 PM  65.2°F  67°F  3 mph SW  4 mph  9 mph  0.00"  54%  39%  48°F  40°F  30.06"
Wed 01:00 PM  64.8°F  67°F  calm  4 mph  7 mph  0.00"  53%  39%  47°F  40°F  30.05"
Wed 12:00 PM  62.7°F  66°F  2 mph S  3 mph  7 mph  0.00"  57%  42%  47°F  41°F  30.06"
Wed 11:00 AM  59.3°F  63°F  1 mph S  3 mph  4 mph  0.00"  64%  47%  47°F  42°F  30.08"
Wed 10:00 AM  55.4°F  60°F  1 mph SW  3 mph  3 mph  0.00"  74%  53%  47°F  42°F  30.10"
Wed 09:00 AM  51.2°F  56°F  2 mph NW  2 mph  5 mph  0.00"  82%  60%  46°F  42°F  30.10"
Wed 08:00 AM  47.0°F  51°F  calm  1 mph  5 mph  0.00"  90%  68%  44°F  40°F  30.10"
Wed 07:00 AM  45.2°F  49°F  1 mph SE  2 mph  3 mph  0.00"  90%  69%  42°F  39°F  30.08"
Wed 06:00 AM  45.5°F  49°F  calm  2 mph  5 mph  0.00"  89%  68%  42°F  38°F  30.07"
Wed 05:00 AM  45.8°F  49°F  calm  2 mph  4 mph  0.00"  88%  68%  42°F  39°F  30.04"
Wed 04:00 AM  46.4°F  50°F  calm  2 mph  5 mph  0.00"  88%  67%  43°F  39°F  30.06"
Wed 03:00 AM  46.9°F  50°F  calm  2 mph  3 mph  0.00"  87%  66%  43°F  39°F  30.05"
Wed 02:00 AM  48.0°F  51°F  calm  2 mph  4 mph  0.00"  86%  67%  44°F  40°F  30.07"
Wed 01:00 AM  48.8°F  51°F  2 mph SE  2 mph  3 mph  0.00"  85%  66%  44°F  40°F  30.06"
Wed 12:00 AM  50.6°F  52°F  calm  2 mph  4 mph  0.00"  83%  66%  45°F  40°F  30.06"
Tue 11:00 PM  50.9°F  53°F  2 mph SE  1 mph  6 mph  0.00"  81%  66%  45°F  41°F  30.04"
Tue 10:00 PM  52.0°F  53°F  calm  2 mph  4 mph  0.00"  75%  64%  44°F  41°F  30.06"

  1. Current weather data. No green row appears if the current weather data is also the high or low for the current day.
  2. High temperature for the current day.
  3. Low temperature for the current day.

The Riverside (Presidential Park), California weather pages are a service of WeatherCurrents.
Copyright ©Thu Dec 13 09:43:55 PST 2018  WeatherCurrents. All rights reserved. - Submit questions and comments - Privacy Policy

This page automatically refreshes every 10 minutes.